Great Harwood, United Kingdom
Current Conditions -  °F | °C
As of 9:50 AM on Saturday 22 Nov 2014 (Local Time) from EGOW Reporting Station
Haze Haze  
Wind Chill: 50°   Ceiling: Unl
Heat Index: 50°   Visibility: 2.5mi
Dew Point: 50°   Wind: 5mph
Humidity: 100%   Direction: 160°SSE
Pressure: 29.8"   Gusts: NA
Location:  53.79°N, 2.41°W
Report Text: EGOW 220950Z 16004KT 4000 BR FEW005 SCT018 10/10 Q1009 GRN
Loading
Personal Weather Stations






























Interactive Weather Map New forecast layout! Learn more

10-Day Weather Forecast

Advertisements
Track Severe Weather on mobile